createdAt,value
2019-03-06T00:01:53.316Z,64.94
2019-03-06T00:04:17.731Z,64.87
2019-03-06T00:06:42.326Z,65.38
2019-03-06T00:09:08.001Z,65.56
2019-03-06T00:11:32.417Z,64.63
2019-03-06T00:13:56.830Z,65.25
2019-03-06T00:16:21.330Z,64.97
2019-03-06T00:18:45.736Z,65.38
2019-03-06T00:21:10.249Z,64.96
2019-03-06T00:23:34.650Z,64.79
2019-03-06T00:25:59.079Z,64.72
2019-03-06T00:28:23.481Z,65.14
2019-03-06T00:30:47.914Z,65.20
2019-03-06T00:33:12.388Z,66.67
2019-03-06T00:35:47.469Z,65.61
2019-03-06T00:38:11.939Z,65.14
2019-03-06T00:40:47.083Z,64.97
2019-03-06T00:43:11.486Z,65.92
2019-03-06T00:45:35.982Z,66.01
2019-03-06T00:48:00.388Z,66.44
2019-03-06T00:50:24.868Z,66.42
2019-03-06T00:52:49.272Z,66.00
2019-03-06T00:55:14.213Z,65.11
2019-03-06T00:57:38.623Z,65.42
2019-03-06T01:00:04.054Z,65.57
2019-03-06T01:02:28.540Z,65.41
2019-03-06T01:04:53.090Z,65.81
2019-03-06T01:07:17.495Z,66.79
2019-03-06T01:09:41.910Z,66.82
2019-03-06T01:12:06.854Z,67.02
2019-03-06T01:14:31.244Z,66.75
2019-03-06T01:16:55.738Z,67.21
2019-03-06T01:19:20.221Z,67.39
2019-03-06T01:21:44.710Z,67.64
2019-03-06T01:24:09.132Z,66.51
2019-03-06T01:26:33.617Z,66.61
2019-03-06T01:28:58.032Z,66.50
2019-03-06T01:31:22.475Z,67.02
2019-03-06T01:34:03.540Z,67.52
2019-03-06T01:36:29.612Z,67.69
2019-03-06T01:38:58.374Z,67.57
2019-03-06T01:41:27.393Z,67.70
2019-03-06T01:43:59.644Z,68.45
2019-03-06T01:46:24.219Z,68.65
2019-03-06T01:48:48.693Z,67.79
2019-03-06T01:51:13.230Z,68.45
2019-03-06T01:53:37.668Z,68.07
2019-03-06T01:56:02.456Z,67.68
2019-03-06T01:58:26.889Z,69.00
2019-03-06T02:00:51.563Z,68.41
2019-03-06T02:03:16.910Z,68.88
2019-03-06T02:05:41.463Z,67.60
2019-03-06T02:08:06.338Z,67.93
2019-03-06T02:10:34.324Z,68.03
2019-03-06T02:13:00.229Z,67.61
2019-03-06T02:15:24.723Z,68.17
2019-03-06T02:17:49.200Z,67.67
2019-03-06T02:20:18.103Z,67.51
2019-03-06T02:22:42.523Z,67.65
2019-03-06T02:25:07.282Z,67.41
2019-03-06T02:27:31.677Z,67.51
2019-03-06T02:29:56.280Z,67.99
2019-03-06T02:32:20.699Z,68.07
2019-03-06T02:34:45.140Z,68.06
2019-03-06T02:37:09.549Z,67.23
2019-03-06T02:39:34.060Z,68.14
2019-03-06T02:41:58.546Z,68.48
2019-03-06T02:44:22.971Z,68.80
2019-03-06T02:46:47.444Z,68.47
2019-03-06T02:49:12.065Z,69.02
2019-03-06T02:51:36.465Z,69.17
2019-03-06T02:54:00.851Z,68.76
2019-03-06T02:56:25.289Z,69.46
2019-03-06T02:58:57.421Z,69.06
2019-03-06T03:01:26.477Z,69.15
2019-03-06T03:04:10.921Z,69.58
2019-03-06T03:06:45.975Z,68.89
2019-03-06T03:09:15.724Z,68.83
2019-03-06T03:11:40.159Z,68.36
2019-03-06T03:14:04.886Z,69.12
2019-03-06T03:16:29.315Z,69.36
2019-03-06T03:18:53.705Z,69.43
2019-03-06T03:21:18.131Z,69.20
2019-03-06T03:23:42.541Z,68.83
2019-03-06T03:26:06.986Z,68.85
2019-03-06T03:28:31.382Z,69.66
2019-03-06T03:30:55.865Z,69.19
2019-03-06T03:33:20.402Z,68.31
2019-03-06T03:35:44.909Z,67.93
2019-03-06T03:38:09.350Z,68.10
2019-03-06T03:40:33.775Z,68.76
2019-03-06T03:42:58.203Z,68.29
2019-03-06T03:45:22.622Z,69.62
2019-03-06T03:47:47.138Z,69.34
2019-03-06T03:50:11.693Z,68.97
2019-03-06T03:52:36.497Z,69.26
2019-03-06T03:55:00.894Z,69.13
2019-03-06T03:57:25.412Z,69.94
2019-03-06T03:59:49.889Z,69.83
2019-03-06T04:02:14.329Z,70.07
2019-03-06T04:04:38.791Z,70.20
2019-03-06T04:07:03.197Z,70.16
2019-03-06T04:09:27.616Z,70.47
2019-03-06T04:11:52.412Z,70.61
2019-03-06T04:14:16.843Z,70.21
2019-03-06T04:16:46.278Z,69.90
2019-03-06T04:19:10.787Z,69.33
2019-03-06T04:21:35.202Z,69.28
2019-03-06T04:23:59.649Z,69.92
2019-03-06T04:26:24.042Z,69.99
2019-03-06T04:28:48.461Z,70.07
2019-03-06T04:31:13.113Z,70.10
2019-03-06T04:33:37.557Z,69.55
2019-03-06T04:36:01.979Z,69.70
2019-03-06T04:38:26.441Z,68.50
2019-03-06T04:40:51.528Z,68.03
2019-03-06T04:43:15.937Z,68.49
2019-03-06T04:45:40.375Z,68.77
2019-03-06T04:48:04.930Z,68.51
2019-03-06T04:50:29.362Z,68.29
2019-03-06T04:52:53.775Z,68.65
2019-03-06T04:55:18.341Z,67.84
2019-03-06T04:57:42.813Z,67.76
2019-03-06T05:00:19.403Z,67.88
2019-03-06T05:02:43.877Z,68.33
2019-03-06T05:05:08.457Z,68.04
2019-03-06T05:07:32.872Z,67.26
2019-03-06T05:09:57.316Z,67.77
2019-03-06T05:12:21.740Z,67.21
2019-03-06T05:14:46.141Z,67.34
2019-03-06T05:17:21.245Z,67.37
2019-03-06T05:19:45.913Z,67.01
2019-03-06T05:22:10.340Z,67.25
2019-03-06T05:24:34.753Z,66.44
2019-03-06T05:26:59.167Z,66.84
2019-03-06T05:29:23.894Z,66.57
2019-03-06T05:32:26.785Z,66.87
2019-03-06T05:34:51.175Z,66.03
2019-03-06T05:37:27.677Z,66.08
2019-03-06T05:39:52.078Z,66.26
2019-03-06T05:42:16.500Z,66.32
2019-03-06T05:44:40.896Z,66.13
2019-03-06T05:47:09.617Z,66.48
2019-03-06T05:49:35.745Z,65.76
2019-03-06T05:52:00.176Z,65.56
2019-03-06T05:54:24.587Z,65.41
2019-03-06T05:56:49.013Z,65.27
2019-03-06T05:59:13.597Z,65.04
2019-03-06T06:01:38.094Z,64.69
2019-03-06T06:04:02.506Z,65.28
2019-03-06T06:06:27.001Z,64.99
2019-03-06T06:08:51.394Z,64.56
2019-03-06T06:11:15.790Z,64.44
2019-03-06T06:13:40.213Z,64.43
2019-03-06T06:16:04.752Z,64.31
2019-03-06T06:18:29.191Z,64.29
2019-03-06T06:20:55.304Z,64.46
2019-03-06T06:23:37.565Z,64.38
2019-03-06T06:26:01.958Z,64.30
2019-03-06T06:28:26.389Z,64.81
2019-03-06T06:30:50.892Z,64.65
2019-03-06T06:33:15.321Z,64.31
2019-03-06T06:35:39.708Z,64.22
2019-03-06T06:38:04.183Z,64.16
2019-03-06T06:40:28.598Z,63.97
2019-03-06T06:42:53.044Z,64.31
2019-03-06T06:45:17.910Z,64.44
2019-03-06T06:48:14.103Z,64.03
2019-03-06T06:50:41.840Z,64.08
2019-03-06T06:53:33.467Z,63.96
2019-03-06T06:56:17.489Z,64.22
2019-03-06T06:58:47.547Z,64.81
2019-03-06T07:01:24.936Z,64.38
2019-03-06T07:04:17.918Z,64.09
2019-03-06T07:07:02.429Z,64.28
2019-03-06T07:09:28.502Z,64.27
2019-03-06T07:12:12.630Z,64.54
2019-03-06T07:14:44.685Z,65.58
2019-03-06T07:17:10.822Z,65.60
2019-03-06T07:19:36.976Z,66.11
2019-03-06T07:22:15.052Z,65.68
2019-03-06T07:24:41.198Z,64.67
2019-03-06T07:27:07.688Z,64.57
2019-03-06T07:29:36.696Z,64.21
2019-03-06T07:32:19.145Z,64.36
2019-03-06T07:35:10.778Z,64.40
2019-03-06T07:37:39.527Z,64.31
2019-03-06T07:40:05.804Z,65.08
2019-03-06T07:42:31.852Z,64.10
2019-03-06T07:45:47.498Z,64.25
2019-03-06T07:48:25.661Z,63.57
2019-03-06T07:50:51.714Z,63.83
2019-03-06T07:54:10.589Z,63.51
2019-03-06T07:56:49.125Z,63.51
2019-03-06T07:59:13.667Z,63.82
2019-03-06T08:01:50.559Z,63.12
2019-03-06T08:04:15.897Z,63.14
2019-03-06T08:06:42.074Z,63.54
2019-03-06T08:09:09.444Z,63.10
2019-03-06T08:11:35.477Z,63.09
2019-03-06T08:14:01.526Z,62.61
2019-03-06T08:16:27.560Z,62.45
2019-03-06T08:18:53.616Z,62.16
2019-03-06T08:21:19.804Z,61.84
2019-03-06T08:23:57.619Z,61.80
2019-03-06T08:26:22.088Z,62.52
2019-03-06T08:28:46.493Z,62.42
2019-03-06T08:31:21.566Z,61.82
2019-03-06T08:33:46.127Z,62.10
2019-03-06T08:36:10.599Z,62.05
2019-03-06T08:38:35.024Z,62.44
2019-03-06T08:41:04.569Z,63.26
2019-03-06T08:43:25.498Z,62.31
2019-03-06T08:46:07.834Z,62.59
2019-03-06T08:48:50.395Z,63.24
2019-03-06T08:51:16.428Z,62.74
2019-03-06T08:53:45.577Z,63.15
2019-03-06T08:56:11.724Z,62.47
2019-03-06T08:58:37.759Z,62.43
2019-03-06T09:01:35.037Z,62.62
2019-03-06T09:04:01.137Z,62.73
2019-03-06T09:06:39.310Z,62.23
2019-03-06T09:09:09.570Z,62.58
2019-03-06T09:11:44.900Z,61.86
2019-03-06T09:14:13.890Z,62.23
2019-03-06T09:16:51.925Z,62.26
2019-03-06T09:19:31.424Z,61.57
2019-03-06T09:21:57.483Z,61.85
2019-03-06T09:24:23.523Z,61.97
2019-03-06T09:26:52.678Z,61.97
2019-03-06T09:29:27.834Z,61.93
2019-03-06T09:31:57.028Z,61.27
2019-03-06T09:34:23.086Z,61.01
2019-03-06T09:36:55.227Z,61.42
2019-03-06T09:39:30.821Z,61.79
2019-03-06T09:41:56.954Z,61.61
2019-03-06T09:44:25.740Z,61.38
2019-03-06T09:47:00.799Z,60.98
2019-03-06T09:49:26.863Z,61.46
2019-03-06T09:51:59.028Z,61.24
2019-03-06T09:54:25.100Z,60.29
2019-03-06T09:56:57.096Z,59.93
2019-03-06T09:59:23.156Z,59.80
2019-03-06T10:01:52.034Z,60.23
2019-03-06T10:04:34.441Z,59.79
2019-03-06T10:07:03.180Z,59.42
2019-03-06T10:09:31.955Z,60.33
2019-03-06T10:12:07.062Z,59.83
2019-03-06T10:14:49.246Z,59.00
2019-03-06T10:17:24.422Z,58.80
2019-03-06T10:19:50.495Z,59.23
2019-03-06T10:22:15.085Z,59.06
2019-03-06T10:24:39.581Z,58.06
2019-03-06T10:27:04.320Z,58.07
2019-03-06T10:29:29.108Z,57.63
2019-03-06T10:31:53.579Z,57.37
2019-03-06T10:34:18.370Z,57.35
2019-03-06T10:36:43.047Z,57.54
2019-03-06T10:39:08.689Z,58.39
2019-03-06T10:41:33.144Z,57.21
2019-03-06T10:43:57.629Z,56.75
2019-03-06T10:46:22.148Z,56.86
2019-03-06T10:48:48.374Z,57.02
2019-03-06T10:51:12.971Z,56.82
2019-03-06T10:53:41.287Z,57.59
2019-03-06T10:56:03.798Z,58.20
2019-03-06T10:58:31.053Z,57.62
2019-03-06T11:00:55.652Z,57.61
2019-03-06T11:03:20.315Z,57.04
2019-03-06T11:05:44.923Z,56.57
2019-03-06T11:08:09.492Z,56.50
2019-03-06T11:10:34.742Z,57.53
2019-03-06T11:12:59.611Z,56.58
2019-03-06T11:15:24.249Z,55.86
2019-03-06T11:17:49.486Z,54.99
2019-03-06T11:20:23.068Z,55.31
2019-03-06T11:22:47.924Z,54.48
2019-03-06T11:25:15.549Z,55.52
2019-03-06T11:27:40.116Z,54.46
2019-03-06T11:30:07.560Z,55.47
2019-03-06T11:32:32.068Z,53.41
2019-03-06T11:34:56.698Z,54.44
2019-03-06T11:37:21.578Z,54.22
2019-03-06T11:39:46.992Z,52.91
2019-03-06T11:42:11.497Z,54.63
2019-03-06T11:44:36.044Z,54.73
2019-03-06T11:47:00.452Z,54.09
2019-03-06T11:49:24.953Z,53.83
2019-03-06T11:51:49.720Z,52.57
2019-03-06T11:54:14.236Z,53.53
2019-03-06T11:56:38.760Z,53.79
2019-03-06T11:59:03.606Z,53.69
2019-03-06T12:01:29.926Z,54.86
2019-03-06T12:03:54.998Z,53.89
2019-03-06T12:06:19.473Z,53.60
2019-03-06T12:08:45.935Z,55.94
2019-03-06T12:11:10.013Z,56.63
2019-03-06T12:13:34.898Z,55.71
2019-03-06T12:15:59.361Z,56.29
2019-03-06T12:18:24.726Z,56.08
2019-03-06T12:20:49.126Z,56.41
2019-03-06T12:23:13.698Z,56.42
2019-03-06T12:25:38.637Z,55.42
2019-03-06T12:28:03.727Z,55.95
2019-03-06T12:30:28.273Z,56.36
2019-03-06T12:32:52.767Z,55.92
2019-03-06T12:35:18.008Z,55.11
2019-03-06T12:37:46.973Z,55.34
2019-03-06T12:40:14.917Z,56.04
2019-03-06T12:42:39.618Z,55.97
2019-03-06T12:45:07.119Z,54.97
2019-03-06T12:47:31.531Z,54.92
2019-03-06T12:49:55.950Z,55.22
2019-03-06T12:52:20.341Z,55.80
2019-03-06T12:54:44.863Z,55.48
2019-03-06T12:57:09.539Z,55.47
2019-03-06T12:59:33.955Z,54.69
2019-03-06T13:01:58.480Z,54.91
2019-03-06T13:04:22.870Z,56.41
2019-03-06T13:06:47.386Z,56.01
2019-03-06T13:09:16.835Z,55.01
2019-03-06T13:11:41.320Z,54.96
2019-03-06T13:14:05.788Z,54.55
2019-03-06T13:16:30.297Z,54.02
2019-03-06T13:18:55.057Z,54.62
2019-03-06T13:21:19.561Z,55.23
2019-03-06T13:23:44.059Z,55.58
2019-03-06T13:26:10.682Z,55.35
2019-03-06T13:28:34.703Z,55.69
2019-03-06T13:30:59.134Z,55.69
2019-03-06T13:33:37.691Z,54.98
2019-03-06T13:36:02.222Z,55.24
2019-03-06T13:38:26.731Z,54.13
2019-03-06T13:40:51.256Z,55.93
2019-03-06T13:43:15.674Z,55.16
2019-03-06T13:45:40.465Z,55.81
2019-03-06T13:48:05.032Z,55.13
2019-03-06T13:50:29.421Z,54.82
2019-03-06T13:52:53.937Z,54.60
2019-03-06T13:55:18.475Z,56.51
2019-03-06T13:57:44.363Z,56.44
2019-03-06T14:00:12.552Z,55.83
2019-03-06T14:02:37.336Z,55.44
2019-03-06T14:05:01.750Z,54.89
2019-03-06T14:07:26.172Z,55.64
2019-03-06T14:09:50.708Z,54.71
2019-03-06T14:12:15.214Z,54.76
2019-03-06T14:14:39.610Z,55.18
2019-03-06T14:17:05.278Z,55.28
2019-03-06T14:19:29.690Z,55.53
2019-03-06T14:21:54.185Z,55.51
2019-03-06T14:24:18.695Z,54.79
2019-03-06T14:26:43.173Z,55.39
2019-03-06T14:29:07.774Z,54.65
2019-03-06T14:31:32.315Z,55.57
2019-03-06T14:33:56.803Z,55.94
2019-03-06T14:36:21.298Z,55.70
2019-03-06T14:38:45.717Z,55.58
2019-03-06T14:41:10.527Z,55.34
2019-03-06T14:43:35.100Z,55.03
2019-03-06T14:45:59.507Z,55.27
2019-03-06T14:48:24.085Z,54.66
2019-03-06T14:50:48.487Z,54.66
2019-03-06T14:53:13.005Z,54.95
2019-03-06T14:55:37.497Z,55.86
2019-03-06T14:58:01.967Z,55.09
2019-03-06T15:00:26.407Z,55.39
2019-03-06T15:02:50.812Z,55.63
2019-03-06T15:05:16.153Z,55.26
2019-03-06T15:07:40.699Z,55.30
2019-03-06T15:10:08.367Z,54.96
2019-03-06T15:12:32.847Z,54.59
2019-03-06T15:14:57.283Z,55.38
2019-03-06T15:17:21.700Z,55.88
2019-03-06T15:19:46.156Z,55.14
2019-03-06T15:22:10.717Z,56.18
2019-03-06T15:24:41.433Z,56.01
2019-03-06T15:27:01.480Z,55.30
2019-03-06T15:29:26.263Z,54.90
2019-03-06T15:31:51.574Z,54.71
2019-03-06T15:34:16.045Z,54.75
2019-03-06T15:36:40.541Z,55.13
2019-03-06T15:39:08.003Z,54.85
2019-03-06T15:41:32.444Z,54.87
2019-03-06T15:43:56.998Z,54.94
2019-03-06T15:46:21.518Z,54.17
2019-03-06T15:48:45.935Z,54.07
2019-03-06T15:51:10.511Z,54.16
2019-03-06T15:53:35.174Z,53.60
2019-03-06T15:55:59.748Z,54.10
2019-03-06T15:58:24.308Z,54.60
2019-03-06T16:00:49.408Z,53.95
2019-03-06T16:03:14.251Z,54.39
2019-03-06T16:05:39.135Z,54.42
2019-03-06T16:08:03.772Z,54.25
2019-03-06T16:10:28.869Z,53.65
2019-03-06T16:12:53.359Z,53.73
2019-03-06T16:15:18.108Z,54.31
2019-03-06T16:17:42.685Z,53.41
2019-03-06T16:20:15.690Z,53.97
2019-03-06T16:22:40.125Z,54.80
2019-03-06T16:25:05.478Z,53.93
2019-03-06T16:27:29.921Z,54.12
2019-03-06T16:29:54.359Z,53.89
2019-03-06T16:32:18.952Z,53.66
2019-03-06T16:34:43.717Z,53.60
2019-03-06T16:37:08.285Z,53.86
2019-03-06T16:39:32.846Z,53.89
2019-03-06T16:41:57.359Z,53.27
2019-03-06T16:44:22.511Z,53.17
2019-03-06T16:46:47.076Z,53.10
2019-03-06T16:49:11.558Z,53.36
2019-03-06T16:51:36.112Z,53.94
2019-03-06T16:54:00.589Z,53.53
2019-03-06T16:56:25.330Z,53.51
2019-03-06T16:58:49.863Z,53.06
2019-03-06T17:04:00.164Z,53.04
2019-03-06T17:15:20.039Z,52.96
2019-03-06T17:20:42.122Z,52.93
2019-03-06T17:23:07.195Z,52.17
2019-03-06T17:25:33.239Z,53.25
2019-03-06T17:27:58.008Z,53.72
2019-03-06T17:30:25.121Z,53.93
2019-03-06T17:32:58.573Z,55.48
2019-03-06T17:35:23.858Z,55.20
2019-03-06T17:37:48.379Z,55.24
2019-03-06T17:40:13.659Z,55.68
2019-03-06T17:42:38.152Z,56.38
2019-03-06T17:47:54.011Z,56.97
2019-03-06T17:50:18.771Z,56.82
2019-03-06T17:52:43.346Z,56.91
2019-03-06T17:55:09.180Z,57.31
2019-03-06T17:57:33.594Z,57.02
2019-03-06T17:59:58.014Z,57.81
2019-03-06T18:02:23.189Z,57.72
2019-03-06T18:04:47.688Z,58.75
2019-03-06T18:07:12.164Z,58.71
2019-03-06T18:09:36.733Z,58.89
2019-03-06T18:12:01.272Z,59.02
2019-03-06T18:14:25.695Z,60.54
2019-03-06T18:16:50.152Z,60.30
2019-03-06T18:19:14.725Z,60.12
2019-03-06T18:21:39.218Z,60.38
2019-03-06T18:24:03.884Z,60.50
2019-03-06T18:26:28.434Z,59.92
2019-03-06T18:28:54.607Z,62.07
2019-03-06T18:31:18.971Z,61.75
2019-03-06T18:33:43.406Z,63.55
2019-03-06T18:36:07.993Z,62.42
2019-03-06T18:38:32.722Z,64.13
2019-03-06T18:41:00.547Z,63.76
2019-03-06T18:43:24.957Z,64.49
2019-03-06T18:45:49.460Z,65.73
2019-03-06T18:48:13.862Z,65.36
2019-03-06T18:50:38.272Z,64.56
2019-03-06T18:53:02.827Z,64.29
2019-03-06T18:55:27.326Z,65.35
2019-03-06T18:57:52.276Z,65.98
2019-03-06T19:00:19.232Z,65.24
2019-03-06T19:02:43.626Z,65.88
2019-03-06T19:05:09.998Z,66.01
2019-03-06T19:07:34.516Z,64.42
2019-03-06T19:09:58.938Z,64.82
2019-03-06T19:12:23.352Z,65.74
2019-03-06T19:14:47.845Z,67.43
2019-03-06T19:17:12.341Z,66.34
2019-03-06T19:19:36.755Z,66.33
2019-03-06T19:22:01.498Z,65.03
2019-03-06T19:24:25.972Z,65.65
2019-03-06T19:26:50.387Z,66.16
2019-03-06T19:29:14.796Z,66.87
2019-03-06T19:31:39.333Z,67.09
2019-03-06T19:34:03.810Z,65.62
2019-03-06T19:36:28.224Z,65.30
2019-03-06T19:38:52.643Z,65.36
2019-03-06T19:41:17.217Z,66.46
2019-03-06T19:43:41.651Z,65.45
2019-03-06T19:46:06.390Z,65.30
2019-03-06T19:48:30.786Z,65.53
2019-03-06T19:50:55.176Z,65.14
2019-03-06T19:53:19.597Z,65.28
2019-03-06T19:55:44.137Z,66.24
2019-03-06T19:58:12.578Z,66.50
2019-03-06T20:00:37.122Z,66.64
2019-03-06T20:03:02.507Z,66.70
2019-03-06T20:05:35.788Z,65.69
2019-03-06T20:08:01.491Z,65.39
2019-03-06T20:10:26.087Z,66.44
2019-03-06T20:12:50.591Z,67.39
2019-03-06T20:15:17.703Z,67.30
2019-03-06T20:17:42.279Z,66.27
2019-03-06T20:20:09.495Z,66.51
2019-03-06T20:22:33.919Z,66.61
2019-03-06T20:24:58.312Z,67.14
2019-03-06T20:27:23.212Z,68.16
2019-03-06T20:29:47.872Z,68.09
2019-03-06T20:32:12.292Z,67.28
2019-03-06T20:34:36.730Z,68.41
2019-03-06T20:37:01.214Z,67.02
2019-03-06T20:39:25.716Z,66.50
2019-03-06T20:41:50.139Z,69.06
2019-03-06T20:44:14.560Z,67.57
2019-03-06T20:46:38.970Z,67.50
2019-03-06T20:49:03.407Z,68.46
2019-03-06T20:51:27.894Z,69.13
2019-03-06T20:53:52.335Z,67.85
2019-03-06T20:56:17.174Z,68.61
2019-03-06T20:58:41.624Z,69.14
2019-03-06T21:01:06.258Z,68.69
2019-03-06T21:03:30.699Z,67.83
2019-03-06T21:05:55.099Z,68.94
2019-03-06T21:08:19.546Z,67.87
2019-03-06T21:10:44.029Z,68.26
2019-03-06T21:13:08.442Z,69.38
2019-03-06T21:15:32.861Z,67.82
2019-03-06T21:17:57.268Z,68.08
2019-03-06T21:20:22.852Z,68.39
2019-03-06T21:22:47.579Z,68.58
2019-03-06T21:25:17.117Z,69.12
2019-03-06T21:27:41.584Z,67.46
2019-03-06T21:30:15.934Z,68.28
2019-03-06T21:32:42.191Z,68.08
2019-03-06T21:35:07.600Z,70.17
2019-03-06T21:37:32.009Z,70.50
2019-03-06T21:39:56.621Z,69.87
2019-03-06T21:42:21.041Z,69.31
2019-03-06T21:44:45.470Z,69.31
2019-03-06T21:47:09.876Z,68.51
2019-03-06T21:49:34.354Z,68.35
2019-03-06T21:51:58.979Z,69.25
2019-03-06T21:54:23.379Z,69.52
2019-03-06T21:56:47.798Z,69.74
2019-03-06T21:59:12.282Z,69.67
2019-03-06T22:01:36.714Z,70.23
2019-03-06T22:04:01.116Z,70.33
2019-03-06T22:06:25.985Z,69.93
2019-03-06T22:08:50.391Z,70.16
2019-03-06T22:11:14.819Z,70.61
2019-03-06T22:13:39.224Z,69.74
2019-03-06T22:16:04.017Z,69.19
2019-03-06T22:18:28.428Z,69.16
2019-03-06T22:20:52.839Z,68.52
2019-03-06T22:23:19.154Z,68.45
2019-03-06T22:25:43.446Z,68.50
2019-03-06T22:28:07.916Z,68.09
2019-03-06T22:30:32.319Z,67.41
2019-03-06T22:32:56.793Z,68.33
2019-03-06T22:35:21.182Z,68.04
2019-03-06T22:37:45.669Z,68.33
2019-03-06T22:40:13.481Z,68.60
2019-03-06T22:42:37.897Z,68.85
2019-03-06T22:45:02.280Z,68.46
2019-03-06T22:47:26.707Z,69.24
2019-03-06T22:49:51.183Z,67.98
2019-03-06T22:52:15.667Z,67.74
2019-03-06T22:54:40.096Z,67.78
2019-03-06T22:57:04.585Z,67.83
2019-03-06T22:59:29.044Z,68.01
2019-03-06T23:01:54.233Z,66.78
2019-03-06T23:04:18.910Z,66.71
2019-03-06T23:06:43.381Z,66.94
2019-03-06T23:09:09.342Z,66.46
2019-03-06T23:11:33.720Z,66.74
2019-03-06T23:13:58.155Z,66.45
2019-03-06T23:16:22.642Z,66.84
2019-03-06T23:18:47.042Z,68.53
2019-03-06T23:21:11.504Z,67.85
2019-03-06T23:23:36.401Z,66.79
2019-03-06T23:26:00.893Z,66.97
2019-03-06T23:28:25.294Z,66.67
2019-03-06T23:30:49.723Z,66.79
2019-03-06T23:33:14.172Z,66.24
2019-03-06T23:35:38.607Z,66.55
2019-03-06T23:38:03.152Z,65.71
2019-03-06T23:40:27.671Z,66.84
2019-03-06T23:42:52.139Z,65.90
2019-03-06T23:45:16.987Z,65.34
2019-03-06T23:47:41.451Z,65.07
2019-03-06T23:50:07.719Z,65.25
2019-03-06T23:52:33.751Z,64.80
2019-03-06T23:54:58.189Z,64.60
2019-03-06T23:57:22.586Z,65.86
2019-03-06T23:59:47.015Z,66.08
